首页
METAR-TAF:

METAR-TAF

机场 :

拉勒米, 怀俄明州, 美国

纬度: 41-18-43N, 经度: 105-40-30W, 海拔: 2218米

当前天气观测

该预报发布于29分钟前的00:53 UTC
温度 15°C
湿度 59%
气压 1021 hPa
能見度: 16.1公里
散云层高于4000英尺
多云层高于8000英尺
阴天层高于11000英尺

METAR: KLAR 180053Z AUTO 10SM SCT040 BKN080 OVC110 15/07 A3016 RMK AO2 SLP130 T01500072

时间: 19:22 (01:22 UTC)

预报

该预报发布于2小时和2分钟前的23:20 UTC
预报有效从18日的 00点(UTC)到 18日的 24点(UTC)
风速10节,风向东北
能見度: 10公里
多云层高于4000英尺, 积雨云.
附近有雷暴
从 18日的 0300点(UTC)
风速6节,风向
能見度: 10公里
多云层高于7000英尺
附近有阵雨
从 18日的 0800点(UTC)
风速4节,风向多变
能見度: 3.2公里
多云层高于500英尺
轻雾, 附近有阵雨
从 18日的 1400点(UTC)
风速10节,风向
能見度: 10公里
散云层高于1500英尺
多云层高于5000英尺
从 18日的 1800点(UTC)
风速8节,风向
能見度: 10公里
散云层高于2000英尺
多云层高于4000英尺, 积雨云.
附近有雷暴

TAF: KLAR 172320Z 1800/1824 05010KT P6SM VCTS BKN040CB FM180300 17006KT P6SM VCSH BKN070 FM180800 VRB04KT 2SM BR VCSH BKN005 FM181400 36010KT P6SM SCT015 BKN050 FM181800 08008KT P6SM VCTS SCT020 BKN040CB

超过4000个机场的气象观测和天气预报(METAR&TAF报告)。

可查询的气象台以黄色和红色小点在地图上表示。

将鼠标移到小点上方,可查看气象台名称。

然后点击查看天气观测和预报。

如需切换地图:点击带黑十字的绿色按钮放大地图;点击带横线的绿色按钮缩小地图;或者点击绿色箭头查看邻近地区的地图。


METAR-TAF: